Time;durP1;ratioP1;P1;durP2;ratioP2;P2;SDS_P1;SDS_P2;PMS_P1;PMS_P2;Temp;Humidity;BMP_temperature;BMP_pressure;BME280_temperature;BME280_humidity;BME280_pressure;Samples;Min_cycle;Max_cycle;Signal;HPM_P1;HPM_P2
2021/03/04 00:00:38;;;;;;;56.17;22.00;;;;;;;;;;6266985;22;20603;-90
2021/03/04 00:03:42;;;;;;;58.33;23.03;;;;;;;;;;6266241;22;20170;-90
2021/03/04 00:06:46;;;;;;;59.97;22.50;;;;;;;;;;6266227;22;20200;-89
2021/03/04 00:09:51;;;;;;;55.70;22.80;;;;;;;;;;6266593;22;20185;-91
2021/03/04 00:12:56;;;;;;;57.83;21.30;;;;;;;;;;6266162;22;20737;-89
2021/03/04 00:16:01;;;;;;;53.73;21.83;;;;;;;;;;6266432;22;20174;-90
2021/03/04 00:19:06;;;;;;;58.03;21.47;;;;;;;;;;6266400;22;20660;-90
2021/03/04 00:22:10;;;;;;;56.60;23.17;;;;;;;;;;6266965;22;20170;-90
2021/03/04 00:25:15;;;;;;;54.13;22.13;;;;;;;;;;6264933;22;20170;-90
2021/03/04 00:28:19;;;;;;;56.43;23.07;;;;;;;;;;6267211;22;20157;-90
2021/03/04 00:31:25;;;;;;;58.47;23.07;;;;;;;;;;6266411;22;20592;-90
2021/03/04 00:34:29;;;;;;;61.80;23.50;;;;;;;;;;6265534;22;20559;-90
2021/03/04 00:37:33;;;;;;;65.80;24.67;;;;;;;;;;6266455;22;20215;-90
2021/03/04 00:40:38;;;;;;;65.37;24.97;;;;;;;;;;6266608;22;20185;-89
2021/03/04 00:43:43;;;;;;;69.03;25.57;;;;;;;;;;6266700;22;20292;-90
2021/03/04 00:46:49;;;;;;;59.20;23.80;;;;;;;;;;6266616;22;20204;-90
2021/03/04 00:49:53;;;;;;;65.30;24.97;;;;;;;;;;6266993;22;20173;-90
2021/03/04 00:52:57;;;;;;;64.33;23.83;;;;;;;;;;6283998;22;20158;-90
2021/03/04 00:56:02;;;;;;;68.30;24.63;;;;;;;;;;6265539;22;20185;-90
2021/03/04 00:59:06;;;;;;;65.90;23.33;;;;;;;;;;6265489;22;20185;-89
2021/03/04 01:02:11;;;;;;;57.53;22.97;;;;;;;;;;6266212;22;20268;-90
2021/03/04 01:05:19;;;;;;;55.80;21.57;;;;;;;;;;6266078;22;20166;-91
2021/03/04 01:08:23;;;;;;;60.60;23.40;;;;;;;;;;6265281;22;20166;-89
2021/03/04 01:11:27;;;;;;;58.83;22.20;;;;;;;;;;6265016;22;20208;-89
2021/03/04 01:14:31;;;;;;;54.77;22.17;;;;;;;;;;6265822;22;20186;-90
2021/03/04 01:17:37;;;;;;;54.00;21.77;;;;;;;;;;6265937;22;20637;-90
2021/03/04 01:20:42;;;;;;;54.90;22.00;;;;;;;;;;6265150;22;20166;-89
2021/03/04 01:23:46;;;;;;;62.93;22.53;;;;;;;;;;6264506;22;20691;-90
2021/03/04 01:26:51;;;;;;;61.70;22.87;;;;;;;;;;6265775;22;20189;-89
2021/03/04 01:29:56;;;;;;;57.40;22.83;;;;;;;;;;6264840;22;20169;-90
2021/03/04 01:33:01;;;;;;;50.77;21.13;;;;;;;;;;6264588;22;20277;-89
2021/03/04 01:36:06;;;;;;;57.43;22.77;;;;;;;;;;6265099;22;20169;-89
2021/03/04 01:39:10;;;;;;;56.53;21.27;;;;;;;;;;6264560;22;20177;-91
2021/03/04 01:42:15;;;;;;;57.03;22.57;;;;;;;;;;6264322;22;20181;-89
2021/03/04 01:45:19;;;;;;;54.80;21.83;;;;;;;;;;6265474;22;20161;-89
2021/03/04 01:48:24;;;;;;;59.93;22.33;;;;;;;;;;6263713;22;20170;-89
2021/03/04 01:51:29;;;;;;;53.73;21.97;;;;;;;;;;6264487;22;20174;-92
2021/03/04 01:54:33;;;;;;;61.27;22.27;;;;;;;;;;6265029;22;20166;-91
2021/03/04 01:57:38;;;;;;;52.77;21.20;;;;;;;;;;6264890;22;20265;-91
2021/03/04 02:00:43;;;;;;;53.17;22.37;;;;;;;;;;6265121;22;20177;-90
2021/03/04 02:03:48;;;;;;;53.23;21.13;;;;;;;;;;6264571;22;20169;-92
2021/03/04 02:06:59;;;;;;;56.90;21.97;;;;;;;;;;6263912;22;20236;-91
2021/03/04 02:10:07;;;;;;;56.90;20.87;;;;;;;;;;6265157;22;20175;-91
2021/03/04 02:13:15;;;;;;;57.17;22.77;;;;;;;;;;6265403;22;20709;-90
2021/03/04 02:16:21;;;;;;;56.10;22.57;;;;;;;;;;6263815;22;20192;-89
2021/03/04 02:19:37;;;;;;;58.77;23.03;;;;;;;;;;6264555;22;20213;-88
2021/03/04 02:22:51;;;;;;;52.47;21.60;;;;;;;;;;6264358;22;20200;-88
2021/03/04 02:25:57;;;;;;;55.37;22.47;;;;;;;;;;6265157;22;20228;-88
2021/03/04 02:29:02;;;;;;;52.70;22.40;;;;;;;;;;6264818;22;20170;-89
2021/03/04 02:32:09;;;;;;;55.00;21.27;;;;;;;;;;6268573;22;20210;-90
2021/03/04 02:35:15;;;;;;;56.17;22.00;;;;;;;;;;6268123;22;20212;-89
2021/03/04 02:38:21;;;;;;;56.37;21.47;;;;;;;;;;6267623;22;20188;-88
2021/03/04 02:41:25;;;;;;;55.90;21.97;;;;;;;;;;6267998;22;20197;-88
2021/03/04 02:44:32;;;;;;;57.77;22.27;;;;;;;;;;6267259;22;20685;-90
2021/03/04 02:47:37;;;;;;;57.53;22.00;;;;;;;;;;6267028;22;20223;-90
2021/03/04 02:50:42;;;;;;;60.80;22.20;;;;;;;;;;6266188;22;20189;-89
2021/03/04 02:53:46;;;;;;;53.03;21.83;;;;;;;;;;6264496;22;20173;-90
2021/03/04 02:56:51;;;;;;;52.07;21.13;;;;;;;;;;6265853;22;20193;-90
2021/03/04 02:59:57;;;;;;;56.90;21.03;;;;;;;;;;6266424;22;20157;-89
2021/03/04 03:03:02;;;;;;;55.23;22.00;;;;;;;;;;6265727;22;20326;-89
2021/03/04 03:06:07;;;;;;;54.13;21.37;;;;;;;;;;6266598;22;20532;-89
2021/03/04 03:09:11;;;;;;;53.00;21.30;;;;;;;;;;6265596;22;20593;-89
2021/03/04 03:12:17;;;;;;;53.57;20.93;;;;;;;;;;6265243;22;20201;-90
2021/03/04 03:15:22;;;;;;;50.93;20.93;;;;;;;;;;6265797;22;20582;-89
2021/03/04 03:18:27;;;;;;;55.13;21.70;;;;;;;;;;6265472;22;20173;-90
2021/03/04 03:21:31;;;;;;;55.47;21.97;;;;;;;;;;6266427;22;20208;-89
2021/03/04 03:24:36;;;;;;;52.77;21.63;;;;;;;;;;6266366;22;20292;-89
2021/03/04 03:27:41;;;;;;;56.70;23.00;;;;;;;;;;6264875;22;20194;-88
2021/03/04 03:30:47;;;;;;;55.70;22.13;;;;;;;;;;6265027;22;20209;-90
2021/03/04 03:33:51;;;;;;;55.03;22.80;;;;;;;;;;6265840;22;20170;-89
2021/03/04 03:36:56;;;;;;;57.20;22.40;;;;;;;;;;6265881;22;20189;-90
2021/03/04 03:40:00;;;;;;;53.83;21.23;;;;;;;;;;6265435;22;20201;-90
2021/03/04 03:43:07;;;;;;;53.20;22.50;;;;;;;;;;6264984;22;20654;-90
2021/03/04 03:46:13;;;;;;;59.07;23.03;;;;;;;;;;6265783;22;20652;-90
2021/03/04 03:49:19;;;;;;;58.27;22.07;;;;;;;;;;6267529;22;20193;-90
2021/03/04 03:52:23;;;;;;;57.90;22.80;;;;;;;;;;6266082;22;20205;-89
2021/03/04 03:55:28;;;;;;;55.77;22.83;;;;;;;;;;6266165;22;20215;-89
2021/03/04 03:58:32;;;;;;;52.13;22.33;;;;;;;;;;6266978;22;20647;-90
2021/03/04 04:01:38;;;;;;;52.17;22.10;;;;;;;;;;6265868;22;20247;-91
2021/03/04 04:04:42;;;;;;;54.23;21.10;;;;;;;;;;6267316;22;20169;-90
2021/03/04 04:07:47;;;;;;;56.30;21.40;;;;;;;;;;6266177;22;20703;-90
2021/03/04 04:10:51;;;;;;;56.50;21.70;;;;;;;;;;6267466;22;20169;-89
2021/03/04 04:13:56;;;;;;;55.93;21.77;;;;;;;;;;6267019;22;20173;-88
2021/03/04 04:17:02;;;;;;;51.73;21.20;;;;;;;;;;6267645;22;20188;-89
2021/03/04 04:20:07;;;;;;;54.40;21.53;;;;;;;;;;6265949;22;20189;-90
2021/03/04 04:23:11;;;;;;;56.77;22.50;;;;;;;;;;6266238;22;20169;-89
2021/03/04 04:26:16;;;;;;;48.27;21.17;;;;;;;;;;6265722;22;20197;-89
2021/03/04 04:29:20;;;;;;;51.77;21.03;;;;;;;;;;6266790;22;20170;-90
2021/03/04 04:32:26;;;;;;;57.07;22.57;;;;;;;;;;6266196;22;20227;-89
2021/03/04 04:35:30;;;;;;;55.67;21.53;;;;;;;;;;6266237;22;20213;-90
2021/03/04 04:38:35;;;;;;;57.93;22.77;;;;;;;;;;6268047;22;20550;-90
2021/03/04 04:41:40;;;;;;;52.83;22.07;;;;;;;;;;6270507;22;20221;-89
2021/03/04 04:44:45;;;;;;;47.93;20.13;;;;;;;;;;6267573;22;20617;-89
2021/03/04 04:47:50;;;;;;;45.33;20.93;;;;;;;;;;6268989;22;20236;-90
2021/03/04 04:50:54;;;;;;;60.37;21.83;;;;;;;;;;6265249;22;20246;-90
2021/03/04 04:53:59;;;;;;;59.20;22.50;;;;;;;;;;6265636;22;20194;-89
2021/03/04 04:57:04;;;;;;;56.07;21.60;;;;;;;;;;6266070;22;20270;-90
2021/03/04 05:00:10;;;;;;;49.40;21.30;;;;;;;;;;6265887;22;20232;-89
2021/03/04 05:03:17;;;;;;;57.40;23.17;;;;;;;;;;6265927;22;20169;-90
2021/03/04 05:06:21;;;;;;;54.63;22.03;;;;;;;;;;6266150;22;20616;-90
2021/03/04 05:09:25;;;;;;;56.53;22.07;;;;;;;;;;6265894;22;20177;-90
2021/03/04 05:12:30;;;;;;;59.17;22.47;;;;;;;;;;6265563;22;20277;-90
2021/03/04 05:15:35;;;;;;;60.53;23.30;;;;;;;;;;6265367;22;20169;-91
2021/03/04 05:18:41;;;;;;;53.27;21.20;;;;;;;;;;6265376;22;20170;-90
2021/03/04 05:21:45;;;;;;;56.37;22.23;;;;;;;;;;6268126;22;20204;-89
2021/03/04 05:24:50;;;;;;;53.60;21.93;;;;;;;;;;6267694;22;20490;-91
2021/03/04 05:27:54;;;;;;;52.47;21.83;;;;;;;;;;6266264;22;20531;-90
2021/03/04 05:31:00;;;;;;;58.37;23.00;;;;;;;;;;6266786;22;20169;-90
2021/03/04 05:34:06;;;;;;;58.20;23.50;;;;;;;;;;6266295;22;20589;-89
2021/03/04 05:37:10;;;;;;;54.37;23.07;;;;;;;;;;6265733;22;20172;-89
2021/03/04 05:40:15;;;;;;;53.77;22.90;;;;;;;;;;6267167;22;20169;-91
2021/03/04 05:43:20;;;;;;;53.47;22.57;;;;;;;;;;6266534;22;20173;-90
2021/03/04 05:46:29;;;;;;;59.80;24.37;;;;;;;;;;6267863;22;20629;-89
2021/03/04 05:49:41;;;;;;;62.13;23.67;;;;;;;;;;6268813;22;20209;-91
2021/03/04 05:52:50;;;;;;;54.60;22.63;;;;;;;;;;6266996;22;20170;-90
2021/03/04 05:55:55;;;;;;;58.23;23.53;;;;;;;;;;6269130;22;20186;-92
2021/03/04 05:59:00;;;;;;;55.93;22.87;;;;;;;;;;6270732;22;20216;-88
2021/03/04 06:02:06;;;;;;;53.33;21.87;;;;;;;;;;6268430;22;20194;-90
2021/03/04 06:05:14;;;;;;;60.17;24.10;;;;;;;;;;6268931;22;20174;-90
2021/03/04 06:08:18;;;;;;;54.47;23.10;;;;;;;;;;6269920;22;20263;-89
2021/03/04 06:11:24;;;;;;;58.03;23.77;;;;;;;;;;6269303;22;20270;-90
2021/03/04 06:14:28;;;;;;;54.03;22.77;;;;;;;;;;6271098;22;20173;-91
2021/03/04 06:17:33;;;;;;;54.47;22.97;;;;;;;;;;6270032;22;20189;-90
2021/03/04 06:20:39;;;;;;;53.23;22.80;;;;;;;;;;6269045;22;20952;-90
2021/03/04 06:23:47;;;;;;;64.13;23.97;;;;;;;;;;6269366;22;20169;-90
2021/03/04 06:26:56;;;;;;;58.13;23.20;;;;;;;;;;6267868;22;20197;-90
2021/03/04 06:30:01;;;;;;;57.27;24.67;;;;;;;;;;6268457;22;20246;-90
2021/03/04 06:33:06;;;;;;;58.30;24.60;;;;;;;;;;6269463;22;20174;-90
2021/03/04 06:36:15;;;;;;;53.00;22.53;;;;;;;;;;6268485;22;20628;-90
2021/03/04 06:39:19;;;;;;;56.73;23.23;;;;;;;;;;6269800;22;20166;-89
2021/03/04 06:42:24;;;;;;;57.30;24.00;;;;;;;;;;6271458;22;20169;-89
2021/03/04 06:45:30;;;;;;;63.73;26.47;;;;;;;;;;6269341;22;20205;-88
2021/03/04 06:48:35;;;;;;;56.57;23.40;;;;;;;;;;6275700;22;20644;-89
2021/03/04 06:51:44;;;;;;;60.90;23.27;;;;;;;;;;6269833;22;20213;-89
2021/03/04 06:54:49;;;;;;;54.83;24.20;;;;;;;;;;6268729;22;20178;-90
2021/03/04 06:58:00;;;;;;;59.63;23.10;;;;;;;;;;6269466;22;20621;-88
2021/03/04 07:01:05;;;;;;;55.13;22.80;;;;;;;;;;6272590;22;20165;-90
2021/03/04 07:04:14;;;;;;;56.63;22.63;;;;;;;;;;6274915;22;20189;-89
2021/03/04 07:07:24;;;;;;;55.63;21.93;;;;;;;;;;6275139;22;20208;-90
2021/03/04 07:10:29;;;;;;;59.33;24.00;;;;;;;;;;6273444;22;20238;-91
2021/03/04 07:13:34;;;;;;;60.30;23.40;;;;;;;;;;6274993;22;20154;-90
2021/03/04 07:16:43;;;;;;;56.97;22.93;;;;;;;;;;6274185;22;20165;-88
2021/03/04 07:19:50;;;;;;;58.37;22.33;;;;;;;;;;6272561;22;20178;-91
2021/03/04 07:22:55;;;;;;;56.53;23.37;;;;;;;;;;6271422;22;20213;-91
2021/03/04 07:26:00;;;;;;;67.83;27.90;;;;;;;;;;6269854;22;20170;-90
2021/03/04 07:29:05;;;;;;;65.37;26.07;;;;;;;;;;6271619;22;20512;-91
2021/03/04 07:32:11;;;;;;;58.57;24.07;;;;;;;;;;6270757;22;20193;-90
2021/03/04 07:35:16;;;;;;;56.03;24.93;;;;;;;;;;6272409;22;20170;-90
2021/03/04 07:38:28;;;;;;;67.00;26.33;;;;;;;;;;6272178;22;20231;-91
2021/03/04 07:41:38;;;;;;;60.43;25.27;;;;;;;;;;6270710;22;20177;-90
2021/03/04 07:44:43;;;;;;;52.07;22.90;;;;;;;;;;6271437;22;20182;-90
2021/03/04 07:47:48;;;;;;;54.03;22.70;;;;;;;;;;6272424;22;20280;-89
2021/03/04 07:50:57;;;;;;;58.40;24.07;;;;;;;;;;6270443;22;20189;-90
2021/03/04 07:54:02;;;;;;;55.70;23.50;;;;;;;;;;6271596;22;20204;-90
2021/03/04 07:57:09;;;;;;;60.80;23.93;;;;;;;;;;6269629;22;20629;-89
2021/03/04 08:00:15;;;;;;;55.57;23.27;;;;;;;;;;6272129;22;20170;-90
2021/03/04 08:03:19;;;;;;;56.50;23.50;;;;;;;;;;6274606;22;20575;-89
2021/03/04 08:06:28;;;;;;;56.43;22.73;;;;;;;;;;6274334;22;20161;-89
2021/03/04 08:09:35;;;;;;;55.53;22.27;;;;;;;;;;6279047;22;20193;-88
2021/03/04 08:12:50;;;;;;;60.67;22.93;;;;;;;;;;6274640;22;20166;-89
2021/03/04 08:15:55;;;;;;;51.73;22.03;;;;;;;;;;6274310;22;20174;-90
2021/03/04 08:19:00;;;;;;;52.23;21.40;;;;;;;;;;6274631;22;20220;-86
2021/03/04 08:22:06;;;;;;;52.73;21.87;;;;;;;;;;6272429;22;20166;-88
2021/03/04 08:25:13;;;;;;;57.13;23.27;;;;;;;;;;6273272;22;20165;-89
2021/03/04 08:28:22;;;;;;;54.40;22.03;;;;;;;;;;6292067;22;20228;-89
2021/03/04 08:31:28;;;;;;;53.53;22.63;;;;;;;;;;6274475;22;20162;-88
2021/03/04 08:34:37;;;;;;;57.73;21.27;;;;;;;;;;6275395;22;20211;-89
2021/03/04 08:37:42;;;;;;;55.30;22.00;;;;;;;;;;6273789;22;20676;-90
2021/03/04 08:40:57;;;;;;;46.37;19.23;;;;;;;;;;6273693;22;20177;-90
2021/03/04 08:44:11;;;;;;;45.87;20.20;;;;;;;;;;6273498;22;20210;-90
2021/03/04 08:47:16;;;;;;;39.20;18.83;;;;;;;;;;6272799;22;20185;-92
2021/03/04 08:50:21;;;;;;;41.00;18.67;;;;;;;;;;6276466;22;20170;-89
2021/03/04 08:53:27;;;;;;;41.53;17.90;;;;;;;;;;6273011;22;20253;-89
2021/03/04 08:56:36;;;;;;;43.70;18.00;;;;;;;;;;6272692;22;20628;-92
2021/03/04 08:59:42;;;;;;;37.53;17.27;;;;;;;;;;6271834;22;20170;-90
2021/03/04 09:02:48;;;;;;;44.43;18.03;;;;;;;;;;6274359;22;20189;-90
2021/03/04 09:10:16;;;;;;;47.27;19.27;;;;;;;;;;6291845;22;20233;-91
2021/03/04 09:13:24;;;;;;;43.10;17.77;;;;;;;;;;6272706;22;20232;-89
2021/03/04 09:16:29;;;;;;;41.33;17.97;;;;;;;;;;6273327;22;20197;-88
2021/03/04 09:19:37;;;;;;;40.90;17.83;;;;;;;;;;6273579;22;20234;-90
2021/03/04 09:22:42;;;;;;;42.30;18.63;;;;;;;;;;6272095;22;20166;-90
2021/03/04 09:25:47;;;;;;;43.27;18.57;;;;;;;;;;6272587;22;20173;-91
2021/03/04 09:28:53;;;;;;;39.30;18.33;;;;;;;;;;6272280;22;20201;-88
2021/03/04 09:31:59;;;;;;;51.03;19.23;;;;;;;;;;6272399;22;20495;-88
2021/03/04 09:35:10;;;;;;;45.43;18.37;;;;;;;;;;6270865;22;20174;-91
2021/03/04 09:38:15;;;;;;;44.30;18.27;;;;;;;;;;6274240;22;20193;-90
2021/03/04 09:41:20;;;;;;;43.00;18.70;;;;;;;;;;6275921;22;20234;-90
2021/03/04 09:44:27;;;;;;;99.63;33.37;;;;;;;;;;6274817;22;20513;-91
2021/03/04 09:47:33;;;;;;;46.97;19.20;;;;;;;;;;6275220;22;20192;-91
2021/03/04 09:50:38;;;;;;;38.90;17.37;;;;;;;;;;6275737;22;20216;-90
2021/03/04 09:53:47;;;;;;;39.20;17.73;;;;;;;;;;6274391;22;20189;-90
2021/03/04 09:57:01;;;;;;;41.87;18.00;;;;;;;;;;6275242;22;20161;-90
2021/03/04 10:00:08;;;;;;;39.70;17.63;;;;;;;;;;6275886;22;20182;-90
2021/03/04 10:03:13;;;;;;;39.57;17.63;;;;;;;;;;6278050;22;20185;-90
2021/03/04 10:06:35;;;;;;;42.40;18.27;;;;;;;;;;6275542;22;20205;-87
2021/03/04 10:09:40;;;;;;;43.00;18.87;;;;;;;;;;6277121;22;20212;-90
2021/03/04 11:46:48;;;;;;;50.50;16.08;;;;;;;;;;6270753;22;20217;-78
2021/03/04 11:49:54;;;;;;;45.08;17.45;;;;;;;;;;6265788;22;20212;-79
2021/03/04 11:52:59;;;;;;;48.92;18.35;;;;;;;;;;6266466;22;20525;-78
2021/03/04 11:56:04;;;;;;;54.30;22.48;;;;;;;;;;6266553;22;20205;-80
2021/03/04 11:59:12;;;;;;;45.97;17.48;;;;;;;;;;6276819;22;20207;-79
2021/03/04 12:02:17;;;;;;;55.78;18.17;;;;;;;;;;6274255;22;20174;-79
2021/03/04 12:05:22;;;;;;;40.95;16.50;;;;;;;;;;6270010;22;20178;-80
2021/03/04 12:08:27;;;;;;;43.65;16.50;;;;;;;;;;6266048;22;20239;-79
2021/03/04 12:11:31;;;;;;;39.35;16.85;;;;;;;;;;6285470;22;20204;-79
2021/03/04 12:14:35;;;;;;;42.78;17.23;;;;;;;;;;6282924;22;20224;-79
2021/03/04 12:17:41;;;;;;;38.25;16.48;;;;;;;;;;6264642;22;20630;-80
2021/03/04 12:20:46;;;;;;;42.72;17.02;;;;;;;;;;6264947;22;20209;-79
2021/03/04 12:23:50;;;;;;;41.35;16.73;;;;;;;;;;6269986;22;20246;-80
2021/03/04 12:26:55;;;;;;;34.47;16.52;;;;;;;;;;6294035;22;20189;-78
2021/03/04 12:30:00;;;;;;;42.33;16.15;;;;;;;;;;6268092;22;20197;-80
2021/03/04 12:33:05;;;;;;;39.38;17.40;;;;;;;;;;6285804;22;20172;-78
2021/03/04 12:36:10;;;;;;;44.35;16.50;;;;;;;;;;6267357;22;20173;-78
2021/03/04 12:39:15;;;;;;;38.00;16.48;;;;;;;;;;6265823;22;20161;-79
2021/03/04 12:42:20;;;;;;;44.20;16.35;;;;;;;;;;6266529;22;20169;-79
2021/03/04 12:45:25;;;;;;;45.83;16.95;;;;;;;;;;6276114;22;20196;-76
2021/03/04 12:48:31;;;;;;;44.80;17.13;;;;;;;;;;6273587;22;20244;-80
2021/03/04 12:51:37;;;;;;;38.42;16.65;;;;;;;;;;6267705;22;20576;-79
2021/03/04 12:54:41;;;;;;;34.53;17.50;;;;;;;;;;6263676;22;20260;-80
2021/03/04 12:57:46;;;;;;;43.30;16.90;;;;;;;;;;6286881;22;20662;-79
2021/03/04 13:00:50;;;;;;;39.30;17.23;;;;;;;;;;6285210;22;20608;-78
2021/03/04 13:03:56;;;;;;;45.80;16.70;;;;;;;;;;6282585;22;20224;-78
2021/03/04 13:07:01;;;;;;;43.40;16.27;;;;;;;;;;6263730;22;20592;-79
2021/03/04 13:10:05;;;;;;;46.47;16.55;;;;;;;;;;6281840;22;20673;-79
2021/03/04 13:13:09;;;;;;;41.15;16.38;;;;;;;;;;6261004;22;20227;-79
2021/03/04 13:16:14;;;;;;;37.70;15.52;;;;;;;;;;6264590;22;20169;-78
2021/03/04 13:19:19;;;;;;;39.85;16.15;;;;;;;;;;6266197;22;20185;-80
2021/03/04 13:22:24;;;;;;;39.47;15.70;;;;;;;;;;6264033;22;20170;-79
2021/03/04 13:25:28;;;;;;;50.80;16.85;;;;;;;;;;6261744;22;20236;-77
2021/03/04 13:28:32;;;;;;;35.95;16.35;;;;;;;;;;6284461;22;20630;-79
2021/03/04 13:31:37;;;;;;;36.53;15.73;;;;;;;;;;6294371;22;20200;-79
2021/03/04 13:34:43;;;;;;;48.90;17.30;;;;;;;;;;6284356;22;20257;-79
2021/03/04 13:37:48;;;;;;;36.22;15.88;;;;;;;;;;6263934;22;20166;-80
2021/03/04 13:40:54;;;;;;;35.38;15.50;;;;;;;;;;6281715;22;20201;-78
2021/03/04 13:43:58;;;;;;;42.55;17.08;;;;;;;;;;6263670;22;20169;-77
2021/03/04 13:47:03;;;;;;;35.67;16.50;;;;;;;;;;6263395;22;20629;-79
2021/03/04 13:50:09;;;;;;;42.95;17.02;;;;;;;;;;6264584;22;20589;-80
2021/03/04 13:53:13;;;;;;;41.92;17.63;;;;;;;;;;6282098;22;20181;-80
2021/03/04 13:56:18;;;;;;;43.28;17.90;;;;;;;;;;6281702;22;20634;-80
2021/03/04 13:59:22;;;;;;;37.03;16.88;;;;;;;;;;6271668;22;20166;-80
2021/03/04 14:02:26;;;;;;;43.22;17.25;;;;;;;;;;6262279;22;20166;-79
2021/03/04 14:05:31;;;;;;;48.97;15.52;;;;;;;;;;6262175;22;20228;-80
2021/03/04 14:08:36;;;;;;;38.65;15.02;;;;;;;;;;6263132;22;20189;-80
2021/03/04 14:11:40;;;;;;;41.33;16.00;;;;;;;;;;6264991;22;20415;-80
2021/03/04 14:14:44;;;;;;;50.15;17.50;;;;;;;;;;6262332;22;20170;-78
2021/03/04 14:17:49;;;;;;;39.92;15.68;;;;;;;;;;6262008;22;20173;-80
2021/03/04 14:20:54;;;;;;;40.70;15.18;;;;;;;;;;6261987;22;20229;-80
2021/03/04 14:23:58;;;;;;;34.35;15.63;;;;;;;;;;6263796;22;20228;-80
2021/03/04 14:27:03;;;;;;;38.42;15.48;;;;;;;;;;6263938;22;20273;-80
2021/03/04 14:30:09;;;;;;;48.75;16.25;;;;;;;;;;6263888;22;20201;-80
2021/03/04 14:33:13;;;;;;;41.03;15.00;;;;;;;;;;6265031;22;20245;-79
2021/03/04 14:36:19;;;;;;;38.20;15.18;;;;;;;;;;6264590;22;20177;-79
2021/03/04 14:39:23;;;;;;;43.10;15.98;;;;;;;;;;6264371;22;20166;-78
2021/03/04 14:42:28;;;;;;;42.20;15.82;;;;;;;;;;6264190;22;20196;-77
2021/03/04 14:45:33;;;;;;;35.05;15.18;;;;;;;;;;6267831;22;20196;-79
2021/03/04 14:48:37;;;;;;;35.53;14.95;;;;;;;;;;6263223;22;20194;-79
2021/03/04 14:51:42;;;;;;;33.58;14.02;;;;;;;;;;6264842;22;20297;-79
2021/03/04 14:54:47;;;;;;;46.78;15.10;;;;;;;;;;6264645;22;20174;-79
2021/03/04 14:57:52;;;;;;;39.35;13.73;;;;;;;;;;6263958;22;20178;-80
2021/03/04 15:00:56;;;;;;;36.28;15.18;;;;;;;;;;6263032;22;20720;-78
2021/03/04 15:04:00;;;;;;;40.08;12.95;;;;;;;;;;6262843;22;20205;-78
2021/03/04 15:07:07;;;;;;;54.92;12.73;;;;;;;;;;6283905;22;20180;-80
2021/03/04 15:10:11;;;;;;;40.88;13.88;;;;;;;;;;6264273;22;20786;-79
2021/03/04 15:13:16;;;;;;;36.78;13.95;;;;;;;;;;6265594;22;20201;-79
2021/03/04 15:16:20;;;;;;;32.28;12.95;;;;;;;;;;6284749;22;20166;-79
2021/03/04 15:19:32;;;;;;;28.92;11.45;;;;;;;;;;6265405;22;20223;-80
2021/03/04 15:22:37;;;;;;;32.45;12.38;;;;;;;;;;6272065;22;20174;-78
2021/03/04 15:25:42;;;;;;;28.48;12.45;;;;;;;;;;6267191;22;20173;-80
2021/03/04 15:28:47;;;;;;;25.83;12.38;;;;;;;;;;6262575;22;20258;-77
2021/03/04 15:31:52;;;;;;;36.05;13.93;;;;;;;;;;6286093;22;20519;-78
2021/03/04 15:34:57;;;;;;;34.50;12.75;;;;;;;;;;6266084;22;20174;-78
2021/03/04 15:38:03;;;;;;;30.15;11.85;;;;;;;;;;6259876;22;20536;-79
2021/03/04 15:41:08;;;;;;;27.90;12.18;;;;;;;;;;6262109;22;20653;-78
2021/03/04 15:44:13;;;;;;;30.50;12.20;;;;;;;;;;6261904;22;20993;-78
2021/03/04 15:47:18;;;;;;;39.08;12.35;;;;;;;;;;6261850;22;20576;-79
2021/03/04 15:50:25;;;;;;;33.03;11.25;;;;;;;;;;6262310;22;20208;-77
2021/03/04 15:53:32;;;;;;;41.97;12.15;;;;;;;;;;6264100;22;20562;-79
2021/03/04 15:56:41;;;;;;;32.83;11.15;;;;;;;;;;6271473;22;20197;-78
2021/03/04 15:59:46;;;;;;;40.00;13.15;;;;;;;;;;6265597;22;20161;-77
2021/03/04 16:02:53;;;;;;;37.65;11.77;;;;;;;;;;6263390;22;20177;-78
2021/03/04 16:06:00;;;;;;;45.83;12.68;;;;;;;;;;6283828;22;20198;-78
2021/03/04 16:09:07;;;;;;;37.13;14.15;;;;;;;;;;6264569;22;20201;-80
2021/03/04 16:12:13;;;;;;;46.90;14.27;;;;;;;;;;6262490;22;20229;-79
2021/03/04 16:15:22;;;;;;;70.25;21.60;;;;;;;;;;6263480;22;20208;-81
2021/03/04 16:18:29;;;;;;;40.97;15.13;;;;;;;;;;6263964;22;20169;-78
2021/03/04 16:21:35;;;;;;;48.08;18.15;;;;;;;;;;6282832;22;20705;-80
2021/03/04 16:24:42;;;;;;;48.40;16.02;;;;;;;;;;6264314;22;20188;-80
2021/03/04 16:27:53;;;;;;;44.20;14.40;;;;;;;;;;6265679;22;20193;-77
2021/03/04 16:31:01;;;;;;;44.22;14.82;;;;;;;;;;6283722;22;20209;-78
2021/03/04 16:34:08;;;;;;;41.67;13.35;;;;;;;;;;6263338;22;20595;-79
2021/03/04 16:37:13;;;;;;;40.22;13.50;;;;;;;;;;6263104;22;20243;-79
2021/03/04 16:40:18;;;;;;;32.47;12.50;;;;;;;;;;6277088;22;20213;-77
2021/03/04 16:43:23;;;;;;;39.78;14.25;;;;;;;;;;6279130;22;20174;-76
2021/03/04 16:46:33;;;;;;;42.47;14.65;;;;;;;;;;6278538;22;20194;-79
2021/03/04 16:49:38;;;;;;;33.95;14.05;;;;;;;;;;6271638;22;20174;-80
2021/03/04 16:52:45;;;;;;;45.67;16.98;;;;;;;;;;6265523;22;20174;-80
2021/03/04 16:55:52;;;;;;;43.70;16.75;;;;;;;;;;6283452;22;20169;-79
2021/03/04 16:58:57;;;;;;;34.65;14.18;;;;;;;;;;6268381;22;20214;-77
2021/03/04 17:02:02;;;;;;;32.95;12.25;;;;;;;;;;6268061;22;20228;-81
2021/03/04 17:05:08;;;;;;;44.47;12.67;;;;;;;;;;6263496;22;20171;-81
2021/03/04 17:08:12;;;;;;;40.77;14.30;;;;;;;;;;6263200;22;20241;-78
2021/03/04 17:11:18;;;;;;;35.00;12.27;;;;;;;;;;6262857;22;20217;-79
2021/03/04 17:14:22;;;;;;;36.38;13.40;;;;;;;;;;6261971;22;20169;-79
2021/03/04 17:17:27;;;;;;;39.25;15.27;;;;;;;;;;6261325;22;20173;-79
2021/03/04 17:20:32;;;;;;;40.90;15.37;;;;;;;;;;6275761;22;20228;-78
2021/03/04 17:23:36;;;;;;;37.83;13.40;;;;;;;;;;6294407;22;20185;-77
2021/03/04 17:26:42;;;;;;;39.67;15.30;;;;;;;;;;6293792;22;20173;-77
2021/03/04 17:29:46;;;;;;;36.70;15.57;;;;;;;;;;6277368;22;20206;-78
2021/03/04 17:32:51;;;;;;;36.43;13.83;;;;;;;;;;6296611;22;20196;-80
2021/03/04 17:35:55;;;;;;;37.80;12.83;;;;;;;;;;6275659;22;20189;-81
2021/03/04 17:39:00;;;;;;;36.43;13.07;;;;;;;;;;6270324;22;20197;-80
2021/03/04 17:42:06;;;;;;;33.47;14.57;;;;;;;;;;6269417;22;20205;-79
2021/03/04 17:45:11;;;;;;;42.95;14.52;;;;;;;;;;6266819;22;20173;-80
2021/03/04 17:48:16;;;;;;;39.87;13.70;;;;;;;;;;6268182;22;20646;-80
2021/03/04 17:51:21;;;;;;;36.27;13.13;;;;;;;;;;6265763;22;20267;-79
2021/03/04 17:54:25;;;;;;;35.17;13.10;;;;;;;;;;6284873;22;20192;-79
2021/03/04 17:57:31;;;;;;;40.93;13.60;;;;;;;;;;6262966;22;20177;-79
2021/03/04 18:00:36;;;;;;;32.27;13.43;;;;;;;;;;6265830;22;20201;-79
2021/03/04 18:03:40;;;;;;;43.33;14.50;;;;;;;;;;6267019;22;20516;-79
2021/03/04 18:06:45;;;;;;;32.07;12.60;;;;;;;;;;6264103;22;20216;-79
2021/03/04 18:09:49;;;;;;;38.50;13.80;;;;;;;;;;6282174;22;20519;-78
2021/03/04 18:12:55;;;;;;;33.73;13.53;;;;;;;;;;6263618;22;20893;-80
2021/03/04 18:16:01;;;;;;;38.33;13.73;;;;;;;;;;6264479;22;20270;-78
2021/03/04 18:19:06;;;;;;;32.60;14.00;;;;;;;;;;6263829;22;20188;-78
2021/03/04 18:22:11;;;;;;;38.20;12.97;;;;;;;;;;6264398;22;20263;-80
2021/03/04 18:25:15;;;;;;;35.77;14.33;;;;;;;;;;6263170;22;20215;-80
2021/03/04 18:28:21;;;;;;;49.57;16.70;;;;;;;;;;6283592;22;20296;-80
2021/03/04 18:31:25;;;;;;;36.63;15.07;;;;;;;;;;6261663;22;20237;-78
2021/03/04 18:34:29;;;;;;;39.20;15.90;;;;;;;;;;6264156;22;20173;-80
2021/03/04 18:37:34;;;;;;;47.27;19.27;;;;;;;;;;6263895;22;20170;-81
2021/03/04 18:40:38;;;;;;;52.67;24.03;;;;;;;;;;6261818;22;20204;-78
2021/03/04 18:43:44;;;;;;;55.43;23.87;;;;;;;;;;6263192;22;20174;-79
2021/03/04 18:46:48;;;;;;;32.23;13.83;;;;;;;;;;6282528;22;20647;-76
2021/03/04 18:49:53;;;;;;;36.67;13.43;;;;;;;;;;6262526;22;20228;-79
2021/03/04 18:52:58;;;;;;;41.73;13.83;;;;;;;;;;6263112;22;20168;-80
2021/03/04 18:56:02;;;;;;;30.53;13.77;;;;;;;;;;6282809;22;20173;-80
2021/03/04 18:59:08;;;;;;;43.77;13.03;;;;;;;;;;6261157;22;20174;-79
2021/03/04 19:02:12;;;;;;;36.03;12.97;;;;;;;;;;6262627;22;20345;-78
2021/03/04 19:05:17;;;;;;;33.57;12.60;;;;;;;;;;6263308;22;20173;-79
2021/03/04 19:08:21;;;;;;;57.73;23.17;;;;;;;;;;6263333;22;20197;-79
2021/03/04 19:11:26;;;;;;;38.60;14.17;;;;;;;;;;6263109;22;20201;-79
2021/03/04 19:14:31;;;;;;;47.20;18.10;;;;;;;;;;6266618;22;20174;-77
2021/03/04 19:17:36;;;;;;;29.60;13.60;;;;;;;;;;6287627;22;20169;-78
2021/03/04 19:20:41;;;;;;;38.63;13.53;;;;;;;;;;6278723;22;20248;-78
2021/03/04 19:23:46;;;;;;;32.00;13.23;;;;;;;;;;6277596;22;20228;-77
2021/03/04 19:26:51;;;;;;;36.33;14.07;;;;;;;;;;6259335;22;20193;-77
2021/03/04 19:29:56;;;;;;;35.63;14.10;;;;;;;;;;6259070;22;20174;-77
2021/03/04 19:33:01;;;;;;;36.43;13.60;;;;;;;;;;6258303;22;20241;-77
2021/03/04 19:36:06;;;;;;;33.77;14.23;;;;;;;;;;6278277;22;20293;-76